Time;durP1;ratioP1;P1;durP2;ratioP2;P2;SDS_P1;SDS_P2;PMS_P1;PMS_P2;Temp;Humidity;BMP_temperature;BMP_pressure;BME280_temperature;BME280_humidity;BME280_pressure;Samples;Min_cycle;Max_cycle;Signal;HPM_P1;HPM_P2
2023/12/26 00:01:32;;;;;;;10.37;10.07;;;9.70;99.90;;;;;;6274642;22;20221;-89
2023/12/26 00:04:06;;;;;;;10.60;10.30;;;9.70;99.90;;;;;;6274215;22;20248;-90
2023/12/26 00:06:38;;;;;;;10.67;10.37;;;9.70;99.90;;;;;;6274515;22;20189;-90
2023/12/26 00:15:00;;;;;;;10.27;9.97;;;9.60;99.90;;;;;;6277351;22;20284;-89
2023/12/26 00:17:37;;;;;;;10.60;10.30;;;9.60;99.90;;;;;;6272254;22;20202;-90
2023/12/26 00:20:08;;;;;;;10.63;10.33;;;9.60;99.90;;;;;;6272468;22;20206;-89
2023/12/26 00:25:22;;;;;;;10.60;10.30;;;9.60;99.90;;;;;;6269659;22;20256;-89
2023/12/26 00:28:00;;;;;;;10.60;10.30;;;9.60;99.90;;;;;;6267157;22;20216;-90
2023/12/26 00:33:21;;;;;;;10.73;10.43;;;9.50;99.90;;;;;;6266578;22;20282;-90
2023/12/26 00:35:54;;;;;;;10.50;10.20;;;9.60;99.90;;;;;;6268012;22;20206;-89
2023/12/26 00:38:27;;;;;;;10.47;10.17;;;9.50;99.90;;;;;;6265971;22;20204;-89
2023/12/26 00:40:56;;;;;;;10.37;10.07;;;9.50;99.90;;;;;;6265829;22;20200;-89
2023/12/26 00:46:21;;;;;;;10.70;10.40;;;9.50;99.90;;;;;;6265278;22;20197;-89
2023/12/26 00:48:52;;;;;;;10.50;10.20;;;9.50;99.90;;;;;;6266597;22;20204;-89
2023/12/26 00:54:16;;;;;;;10.30;10.00;;;9.50;99.90;;;;;;6263401;22;20202;-89
2023/12/26 00:56:48;;;;;;;10.57;10.27;;;9.50;99.90;;;;;;6266801;22;20260;-90
2023/12/26 00:59:17;;;;;;;10.37;10.07;;;9.40;99.90;;;;;;6270934;22;20201;-89
2023/12/26 01:02:15;;;;;;;10.50;10.20;;;9.40;99.90;;;;;;6272649;22;20191;-90
2023/12/26 01:04:50;;;;;;;10.70;10.40;;;9.40;99.90;;;;;;6269177;22;20201;-90
2023/12/26 01:07:27;;;;;;;10.73;10.43;;;9.40;99.90;;;;;;6278284;22;20197;-89
2023/12/26 01:10:07;;;;;;;10.63;10.33;;;9.40;99.90;;;;;;6273967;22;20252;-90
2023/12/26 01:15:31;;;;;;;10.63;10.33;;;9.40;99.90;;;;;;6266472;22;20221;-90
2023/12/26 01:24:01;;;;;;;10.40;10.10;;;9.40;99.90;;;;;;6264402;22;20206;-90
2023/12/26 01:26:41;;;;;;;10.27;9.97;;;9.40;99.90;;;;;;6266775;22;20190;-90
2023/12/26 01:29:10;;;;;;;10.27;9.97;;;9.40;99.90;;;;;;6265179;22;20202;-88
2023/12/26 01:31:59;;;;;;;10.50;10.20;;;9.40;99.90;;;;;;6265814;22;20190;-88
2023/12/26 01:37:24;;;;;;;10.43;10.13;;;9.50;99.90;;;;;;6250611;22;20210;-80
2023/12/26 01:40:00;;;;;;;10.60;10.30;;;9.50;99.90;;;;;;6261340;22;20191;-81
2023/12/26 01:42:31;;;;;;;10.50;10.20;;;9.50;99.90;;;;;;6263575;22;20249;-80
2023/12/26 01:45:01;;;;;;;10.50;10.20;;;9.50;99.90;;;;;;6263201;22;20194;-80
2023/12/26 01:47:38;;;;;;;10.50;10.20;;;9.50;99.90;;;;;;6262205;22;20253;-80
2023/12/26 01:50:15;;;;;;;10.60;10.30;;;9.50;99.90;;;;;;6262427;22;20197;-80
2023/12/26 01:53:24;;;;;;;10.70;10.40;;;9.40;99.90;;;;;;6262170;22;20220;-80
2023/12/26 01:55:53;;;;;;;10.50;10.20;;;9.40;99.90;;;;;;6265256;22;20194;-81
2023/12/26 01:58:58;;;;;;;10.40;10.10;;;9.40;99.90;;;;;;6262758;22;20198;-80
2023/12/26 02:01:35;;;;;;;10.50;10.20;;;9.40;99.90;;;;;;6229131;22;20198;-80
2023/12/26 02:07:09;;;;;;;10.33;10.03;;;9.40;99.90;;;;;;6244869;22;20206;-82
2023/12/26 02:09:46;;;;;;;10.43;10.13;;;9.40;99.90;;;;;;6262382;22;20194;-80
2023/12/26 02:12:43;;;;;;;10.40;10.10;;;9.40;99.90;;;;;;6262762;22;20318;-81
2023/12/26 02:15:27;;;;;;;10.50;10.20;;;9.30;99.90;;;;;;6262304;22;20202;-80
2023/12/26 02:18:23;;;;;;;10.53;10.23;;;9.30;99.90;;;;;;6262419;22;20246;-80
2023/12/26 02:20:53;;;;;;;10.40;10.10;;;9.30;99.90;;;;;;6256871;22;20195;-81
2023/12/26 02:26:20;;;;;;;10.60;10.30;;;9.20;99.90;;;;;;6261639;22;20207;-80
2023/12/26 02:29:13;;;;;;;;;;;;;;;;;;;;;
2023/12/26 02:31:57;;;;;;;10.60;10.30;;;9.20;99.90;;;;;;6263894;22;20297;-81
2023/12/26 02:35:05;;;;;;;;;;;;;;;;;;;;;
2023/12/26 02:38:14;;;;;;;10.33;10.03;;;9.10;99.90;;;;;;6260493;22;20220;-79
2023/12/26 02:40:51;;;;;;;10.50;10.20;;;9.10;99.90;;;;;;6262140;22;20190;-79
2023/12/26 02:43:55;;;;;;;10.40;10.10;;;9.10;99.90;;;;;;6261902;22;20222;-80
2023/12/26 02:46:48;;;;;;;10.27;9.97;;;9.10;99.90;;;;;;6259293;22;20200;-79
2023/12/26 02:52:52;;;;;;;10.20;9.90;;;9.10;99.90;;;;;;6255985;22;20492;-79
2023/12/26 02:58:25;;;;;;;10.23;9.93;;;9.00;99.90;;;;;;6240688;22;20206;-79
2023/12/26 03:01:13;;;;;;;10.27;9.97;;;9.00;99.90;;;;;;6271235;22;20194;-79
2023/12/26 03:03:42;;;;;;;10.07;9.77;;;9.00;99.90;;;;;;6264607;22;20218;-79
2023/12/26 03:06:13;;;;;;;10.20;9.90;;;9.00;99.90;;;;;;6264198;22;20205;-80
2023/12/26 03:09:02;;;;;;;10.07;9.77;;;9.10;99.90;;;;;;6263702;22;20266;-79
2023/12/26 03:11:43;;;;;;;10.20;9.90;;;9.00;99.90;;;;;;6263255;22;20198;-80
2023/12/26 03:14:24;;;;;;;10.27;9.97;;;9.00;99.90;;;;;;6262506;22;20264;-79
2023/12/26 03:16:54;;;;;;;10.20;9.90;;;8.90;99.90;;;;;;6262020;22;20277;-80
2023/12/26 03:19:33;;;;;;;10.30;10.00;;;8.80;99.90;;;;;;6262710;22;20244;-79
2023/12/26 03:22:04;;;;;;;10.30;10.00;;;8.80;99.90;;;;;;6262541;22;20280;-80
2023/12/26 03:27:46;;;;;;;10.30;10.00;;;8.80;99.90;;;;;;6243828;22;20257;-80
2023/12/26 03:33:49;;;;;;;10.27;9.97;;;8.80;99.90;;;;;;6251220;22;20198;-81
2023/12/26 03:36:23;;;;;;;10.10;9.80;;;8.70;99.90;;;;;;6262137;22;20198;-80
2023/12/26 03:38:59;;;;;;;10.10;9.80;;;8.70;99.90;;;;;;6262059;22;20194;-82
2023/12/26 03:41:30;;;;;;;10.17;9.87;;;8.70;99.90;;;;;;6264756;22;20245;-80
2023/12/26 03:44:18;;;;;;;10.27;9.97;;;8.70;99.90;;;;;;6266843;22;20209;-80
2023/12/26 03:46:51;;;;;;;10.00;9.70;;;8.70;99.90;;;;;;6266779;22;20253;-81
2023/12/26 03:50:34;;;;;;;10.13;9.83;;;8.70;99.90;;;;;;6262600;22;20218;-80
2023/12/26 03:53:28;;;;;;;10.30;10.00;;;8.70;99.90;;;;;;6159732;22;20198;-80
2023/12/26 04:02:44;;;;;;;10.10;9.80;;;8.60;99.90;;;;;;6142438;22;20213;-79
2023/12/26 04:05:43;;;;;;;10.13;9.83;;;8.60;99.90;;;;;;6150102;23;20193;-79
2023/12/26 04:08:30;;;;;;;10.30;10.00;;;8.60;99.90;;;;;;6238163;22;20209;-80
2023/12/26 04:11:23;;;;;;;10.07;9.77;;;8.60;99.90;;;;;;6265593;22;20202;-80
2023/12/26 04:13:54;;;;;;;10.17;9.87;;;8.60;99.90;;;;;;6220329;22;20195;-80
2023/12/26 04:19:47;;;;;;;9.90;9.60;;;8.70;99.90;;;;;;6243808;22;20246;-80
2023/12/26 04:22:47;;;;;;;10.00;9.70;;;8.70;99.90;;;;;;6272799;22;20217;-80
2023/12/26 04:25:45;;;;;;;10.23;9.93;;;8.70;99.90;;;;;;6282027;22;20187;-78
2023/12/26 04:28:53;;;;;;;10.17;9.87;;;8.70;99.90;;;;;;6281924;22;20238;-79
2023/12/26 04:34:43;;;;;;;10.20;9.90;;;8.70;99.90;;;;;;6280600;22;20208;-80
2023/12/26 04:37:37;;;;;;;10.27;9.97;;;8.70;99.90;;;;;;6282688;22;20190;-79
2023/12/26 04:40:36;;;;;;;9.90;9.60;;;8.70;99.90;;;;;;6281202;22;20323;-80
2023/12/26 04:43:15;;;;;;;9.83;9.53;;;8.80;99.90;;;;;;6281821;22;20206;-79
2023/12/26 04:46:09;;;;;;;10.00;9.70;;;8.80;99.90;;;;;;6281888;22;20194;-79
2023/12/26 04:48:46;;;;;;;10.00;9.70;;;8.80;99.90;;;;;;6281416;22;20247;-79
2023/12/26 04:55:13;;;;;;;10.00;9.70;;;8.80;99.90;;;;;;6264903;22;20178;-78
2023/12/26 04:57:59;;;;;;;10.10;9.80;;;8.90;99.90;;;;;;6281147;22;20190;-80
2023/12/26 05:01:22;;;;;;;10.03;9.73;;;8.90;99.90;;;;;;6282142;22;20194;-79
2023/12/26 05:07:23;;;;;;;10.20;9.90;;;8.90;99.90;;;;;;6196147;23;20243;-80
2023/12/26 05:10:26;;;;;;;10.23;9.93;;;8.90;99.90;;;;;;6200510;23;20195;-80
2023/12/26 05:13:51;;;;;;;10.30;10.00;;;8.90;99.90;;;;;;6263336;22;20200;-81
2023/12/26 05:16:42;;;;;;;10.20;9.90;;;8.90;99.90;;;;;;6260056;22;20206;-80
2023/12/26 05:22:30;;;;;;;10.30;10.00;;;8.90;99.90;;;;;;6215682;22;20206;-80
2023/12/26 05:25:17;;;;;;;10.17;9.87;;;8.90;99.90;;;;;;6263121;22;20205;-80
2023/12/26 05:27:52;;;;;;;9.80;9.50;;;8.90;99.90;;;;;;6262821;22;20221;-80
2023/12/26 05:30:51;;;;;;;9.97;9.67;;;8.90;99.90;;;;;;6262706;22;20217;-80
2023/12/26 05:33:36;;;;;;;10.20;9.90;;;8.80;99.90;;;;;;6265114;22;20206;-80
2023/12/26 05:39:11;;;;;;;9.80;9.50;;;8.70;99.90;;;;;;6255069;22;20199;-80
2023/12/26 05:41:41;;;;;;;10.00;9.70;;;8.70;99.90;;;;;;6263828;22;20190;-80
2023/12/26 05:44:16;;;;;;;9.77;9.47;;;8.70;99.90;;;;;;6273073;22;20205;-80
2023/12/26 05:46:49;;;;;;;9.83;9.53;;;8.70;99.90;;;;;;6279681;22;20198;-79
2023/12/26 05:49:28;;;;;;;10.00;9.70;;;8.70;99.90;;;;;;6279590;22;20193;-78
2023/12/26 05:52:13;;;;;;;10.00;9.70;;;8.70;99.90;;;;;;6270218;22;20228;-81
2023/12/26 05:57:53;;;;;;;9.97;9.67;;;8.70;99.90;;;;;;6263714;22;20210;-81
2023/12/26 06:00:34;;;;;;;10.30;10.00;;;8.70;99.90;;;;;;6265295;22;20324;-80
2023/12/26 06:03:05;;;;;;;9.93;9.63;;;8.80;99.90;;;;;;6264024;22;20190;-80
2023/12/26 06:05:39;;;;;;;10.00;9.70;;;8.80;99.90;;;;;;6266759;22;20195;-80
2023/12/26 06:08:07;;;;;;;10.30;10.00;;;8.70;99.90;;;;;;6271910;22;20222;-81
2023/12/26 06:10:35;;;;;;;10.30;10.00;;;8.80;99.90;;;;;;6269672;22;20198;-80
2023/12/26 06:13:03;;;;;;;10.40;10.10;;;8.70;99.90;;;;;;6265886;22;20225;-80
2023/12/26 06:15:31;;;;;;;10.50;10.20;;;8.80;99.90;;;;;;6264527;22;20289;-80
2023/12/26 06:18:01;;;;;;;9.97;9.67;;;8.80;99.90;;;;;;6262813;22;20253;-80
2023/12/26 06:20:32;;;;;;;9.97;9.67;;;8.80;99.90;;;;;;6263706;22;20224;-80
2023/12/26 06:23:04;;;;;;;9.97;9.67;;;8.80;99.90;;;;;;6263214;22;20205;-80
2023/12/26 06:25:40;;;;;;;10.13;9.83;;;8.80;99.90;;;;;;6263177;22;20217;-80
2023/12/26 06:28:10;;;;;;;10.10;9.80;;;8.80;99.90;;;;;;6262613;22;20249;-80
2023/12/26 06:30:45;;;;;;;10.00;9.70;;;8.80;99.90;;;;;;6265043;22;20254;-80
2023/12/26 06:33:25;;;;;;;10.10;9.80;;;8.80;99.90;;;;;;6264717;22;20201;-80
2023/12/26 06:35:59;;;;;;;9.90;9.60;;;8.80;99.90;;;;;;6263050;22;20210;-80
2023/12/26 06:38:30;;;;;;;9.80;9.50;;;8.80;99.90;;;;;;6263373;22;20198;-80
2023/12/26 06:41:06;;;;;;;9.80;9.50;;;8.80;99.90;;;;;;6263320;22;20258;-80
2023/12/26 06:43:38;;;;;;;9.80;9.50;;;8.90;99.90;;;;;;6262975;22;20221;-81
2023/12/26 06:46:07;;;;;;;10.17;9.87;;;8.90;99.90;;;;;;6262091;22;20200;-80
2023/12/26 06:48:39;;;;;;;9.90;9.60;;;8.80;99.90;;;;;;6262064;22;20209;-80
2023/12/26 06:51:11;;;;;;;9.90;9.60;;;8.80;99.90;;;;;;6262325;22;20194;-80
2023/12/26 06:53:52;;;;;;;9.73;9.43;;;8.90;99.90;;;;;;6262225;22;20202;-81
2023/12/26 06:56:25;;;;;;;9.77;9.47;;;8.90;99.90;;;;;;6261278;22;20665;-81
2023/12/26 06:58:57;;;;;;;9.90;9.60;;;8.90;99.90;;;;;;6262089;22;20194;-80
2023/12/26 07:01:31;;;;;;;9.40;9.10;;;8.90;99.90;;;;;;6262341;22;20198;-80
2023/12/26 07:04:10;;;;;;;9.50;9.20;;;8.90;99.90;;;;;;6262913;22;20281;-80
2023/12/26 07:06:50;;;;;;;9.50;9.20;;;8.90;99.90;;;;;;6261624;22;20197;-80
2023/12/26 07:09:35;;;;;;;9.80;9.50;;;9.00;99.90;;;;;;6269287;22;20237;-79
2023/12/26 07:15:03;;;;;;;9.50;9.20;;;9.00;99.90;;;;;;6262149;22;20204;-80
2023/12/26 07:17:39;;;;;;;9.70;9.40;;;9.00;99.90;;;;;;6263326;22;20269;-80
2023/12/26 07:20:11;;;;;;;9.67;9.37;;;9.00;99.90;;;;;;6265702;22;20237;-80
2023/12/26 07:22:58;;;;;;;9.43;9.13;;;9.10;99.90;;;;;;6265588;22;20193;-80
2023/12/26 07:25:29;;;;;;;9.60;9.30;;;9.10;99.90;;;;;;6265496;22;20198;-81
2023/12/26 07:27:57;;;;;;;9.50;9.20;;;9.10;99.90;;;;;;6262215;22;20201;-80
2023/12/26 07:30:24;;;;;;;9.50;9.20;;;9.10;99.90;;;;;;6261517;22;20239;-81
2023/12/26 07:32:52;;;;;;;9.60;9.30;;;9.10;99.90;;;;;;6262087;22;20201;-80
2023/12/26 07:35:30;;;;;;;9.87;9.57;;;9.10;99.90;;;;;;6262020;22;20210;-81
2023/12/26 07:37:59;;;;;;;9.50;9.20;;;9.20;99.90;;;;;;6265840;22;20197;-88
2023/12/26 07:43:16;;;;;;;9.50;9.20;;;9.20;99.90;;;;;;6268150;22;20198;-89
2023/12/26 07:45:45;;;;;;;9.77;9.47;;;9.20;99.90;;;;;;6267554;22;20194;-88
2023/12/26 07:48:14;;;;;;;9.67;9.37;;;9.20;99.90;;;;;;6267462;22;20201;-89
2023/12/26 07:50:54;;;;;;;9.70;9.40;;;9.20;99.90;;;;;;6267360;22;20198;-88
2023/12/26 07:53:22;;;;;;;9.77;9.47;;;9.20;99.90;;;;;;6268277;22;20201;-90
2023/12/26 08:01:52;;;;;;;9.95;9.65;;;9.20;99.90;;;;;;6270569;22;20425;-87
2023/12/26 08:04:21;;;;;;;9.60;9.30;;;9.20;99.90;;;;;;6273187;22;20246;-88
2023/12/26 08:07:02;;;;;;;9.50;9.20;;;9.20;99.90;;;;;;6270187;22;20225;-88
2023/12/26 08:09:53;;;;;;;9.60;9.30;;;9.30;99.90;;;;;;6267501;22;20182;-88
2023/12/26 08:26:58;;;;;;;9.70;9.40;;;9.30;99.90;;;;;;6334505;22;20305;-90
2023/12/26 08:38:29;;;;;;;9.33;9.03;;;9.10;99.90;;;;;;6242929;22;20202;-90
2023/12/26 08:41:29;;;;;;;9.77;9.47;;;9.10;99.90;;;;;;6244213;23;20198;-91
2023/12/26 08:44:43;;;;;;;9.50;9.20;;;9.00;99.90;;;;;;6246788;22;20202;-90
2023/12/26 08:47:31;;;;;;;9.60;9.30;;;9.00;99.90;;;;;;6243364;22;20198;-90
2023/12/26 08:53:08;;;;;;;9.57;9.27;;;9.00;99.90;;;;;;6249375;22;20195;-90
2023/12/26 08:59:21;;;;;;;9.60;9.30;;;9.00;99.90;;;;;;6130666;23;20271;-90
2023/12/26 09:02:08;;;;;;;9.50;9.20;;;9.00;99.90;;;;;;6242421;22;20209;-90
2023/12/26 09:04:48;;;;;;;9.47;9.17;;;9.00;99.90;;;;;;6242822;22;20255;-88
2023/12/26 09:07:33;;;;;;;9.70;9.40;;;9.00;99.90;;;;;;6243474;22;20195;-90
2023/12/26 09:10:26;;;;;;;9.33;9.03;;;9.10;99.90;;;;;;6246822;23;20202;-90
2023/12/26 09:16:13;;;;;;;9.50;9.20;;;9.10;99.90;;;;;;6242428;23;20202;-89
2023/12/26 09:35:52;;;;;;;9.30;9.00;;;9.30;99.90;;;;;;6027877;23;20244;-88
2023/12/26 09:38:33;;;;;;;9.30;9.00;;;9.30;99.90;;;;;;6173881;23;20210;-88
2023/12/26 09:41:26;;;;;;;9.30;9.00;;;9.30;99.90;;;;;;6172836;23;20196;-86
2023/12/26 09:55:36;;;;;;;9.70;9.40;;;9.30;99.90;;;;;;6238165;22;20203;-89
2023/12/26 09:58:07;;;;;;;9.40;9.10;;;9.40;99.90;;;;;;6236429;23;20202;-89
2023/12/26 10:00:37;;;;;;;9.60;9.30;;;9.40;99.90;;;;;;6237389;23;20211;-88
2023/12/26 10:03:07;;;;;;;9.33;9.03;;;9.40;99.90;;;;;;6235886;23;20255;-88
2023/12/26 10:06:14;;;;;;;9.30;9.00;;;9.40;99.90;;;;;;6235690;22;20199;-88
2023/12/26 10:14:40;;;;;;;9.40;9.10;;;9.50;99.90;;;;;;6236329;23;20195;-88
2023/12/26 10:17:19;;;;;;;9.70;9.40;;;9.40;99.90;;;;;;6239637;23;20214;-87
2023/12/26 10:19:48;;;;;;;9.67;9.37;;;9.50;99.90;;;;;;6242389;22;20194;-89
2023/12/26 10:22:25;;;;;;;9.60;9.30;;;9.50;99.90;;;;;;6240122;23;20254;-89
2023/12/26 10:31:23;;;;;;;9.60;9.30;;;9.50;99.90;;;;;;6236833;23;20170;-88
2023/12/26 10:34:21;;;;;;;9.50;9.20;;;9.60;99.90;;;;;;6236321;23;20209;-88
2023/12/26 10:36:54;;;;;;;9.77;9.47;;;9.60;99.90;;;;;;6236799;23;20191;-87
2023/12/26 10:39:46;;;;;;;9.50;9.20;;;9.60;99.90;;;;;;6235988;23;20187;-87
2023/12/26 10:42:35;;;;;;;9.43;9.13;;;9.50;99.90;;;;;;6237521;22;20195;-87
2023/12/26 10:45:10;;;;;;;9.50;9.20;;;9.50;99.90;;;;;;6235930;23;20202;-87
2023/12/26 10:59:04;;;;;;;9.50;9.20;;;9.60;99.90;;;;;;6199375;23;20201;-89
2023/12/26 13:56:54;;;;;;;8.93;8.73;;;9.10;99.90;;;;;;6203610;23;20200;-81
2023/12/26 14:00:18;;;;;;;9.27;8.97;;;9.10;99.90;;;;;;6204121;23;20198;-81
2023/12/26 14:03:44;;;;;;;9.10;8.80;;;9.20;99.90;;;;;;6211549;23;20963;-81
2023/12/26 14:07:08;;;;;;;9.37;9.07;;;9.20;99.90;;;;;;6220354;23;20195;-80
2023/12/26 14:10:31;;;;;;;9.20;8.90;;;9.20;99.90;;;;;;6220237;23;20184;-79
2023/12/26 14:13:55;;;;;;;9.33;9.03;;;9.10;99.90;;;;;;6218560;23;20247;-80
2023/12/26 14:17:19;;;;;;;9.40;9.10;;;9.10;99.90;;;;;;6220265;23;20209;-80
2023/12/26 14:20:42;;;;;;;9.40;9.10;;;9.10;99.90;;;;;;6220367;23;20235;-80
2023/12/26 14:24:06;;;;;;;9.30;9.00;;;9.10;99.90;;;;;;6218891;23;20232;-80
2023/12/26 14:27:29;;;;;;;9.60;9.30;;;9.00;99.90;;;;;;6219093;23;20223;-80
2023/12/26 14:30:53;;;;;;;9.20;8.90;;;9.00;99.90;;;;;;6219561;23;20239;-79
2023/12/26 14:34:17;;;;;;;9.73;9.43;;;9.00;99.90;;;;;;6219872;23;20206;-80
2023/12/26 14:37:40;;;;;;;9.60;9.30;;;8.90;99.90;;;;;;6219931;23;20195;-80
2023/12/26 14:41:04;;;;;;;9.97;9.67;;;8.80;99.90;;;;;;6217252;23;20222;-80
2023/12/26 14:44:27;;;;;;;9.90;9.60;;;8.70;99.90;;;;;;6217075;23;20182;-81
2023/12/26 14:47:51;;;;;;;10.17;9.87;;;8.60;99.90;;;;;;6212955;23;20196;-81
2023/12/26 14:51:14;;;;;;;10.27;9.97;;;8.60;99.90;;;;;;6202926;23;20209;-81
2023/12/26 14:54:38;;;;;;;10.20;9.90;;;8.50;99.90;;;;;;6203486;23;20192;-81
2023/12/26 14:58:01;;;;;;;10.20;9.90;;;8.40;99.90;;;;;;6204093;23;20250;-81
2023/12/26 15:01:26;;;;;;;10.50;10.20;;;8.40;99.90;;;;;;6202458;23;20207;-80
2023/12/26 15:03:55;;;;;;;10.50;10.20;;;8.30;99.90;;;;;;6203020;23;20219;-81
2023/12/26 15:06:22;;;;;;;10.53;10.23;;;8.30;99.90;;;;;;6203373;23;20207;-81
2023/12/26 15:08:49;;;;;;;9.97;9.67;;;8.30;99.90;;;;;;6203816;23;20286;-82
2023/12/26 15:11:17;;;;;;;10.30;10.00;;;8.30;99.90;;;;;;6202803;23;20667;-81
2023/12/26 15:13:44;;;;;;;10.37;10.07;;;8.30;99.90;;;;;;6203397;23;20199;-81
2023/12/26 15:16:18;;;;;;;10.70;10.40;;;8.30;99.90;;;;;;6203095;23;20210;-81
2023/12/26 15:18:46;;;;;;;10.80;10.50;;;8.30;99.90;;;;;;6203011;23;20195;-81
2023/12/26 15:21:15;;;;;;;10.70;10.40;;;8.30;99.90;;;;;;6203598;23;20207;-81
2023/12/26 15:23:44;;;;;;;10.63;10.33;;;8.30;99.90;;;;;;6203059;23;20208;-82
2023/12/26 15:26:15;;;;;;;10.70;10.40;;;8.30;99.90;;;;;;6201849;23;20239;-81
2023/12/26 15:28:43;;;;;;;10.70;10.40;;;8.30;99.90;;;;;;6201790;23;20266;-83
2023/12/26 15:31:15;;;;;;;10.80;10.50;;;8.30;99.90;;;;;;6214003;23;20199;-81
2023/12/26 15:33:43;;;;;;;10.47;10.17;;;8.30;99.90;;;;;;6217546;23;20202;-81
2023/12/26 15:36:17;;;;;;;10.40;10.10;;;8.30;99.90;;;;;;6216662;23;20227;-82
2023/12/26 15:38:45;;;;;;;10.43;10.13;;;8.30;99.90;;;;;;6206410;23;20194;-81
2023/12/26 15:41:12;;;;;;;10.30;10.00;;;8.40;99.90;;;;;;6204370;23;20200;-81
2023/12/26 15:43:40;;;;;;;10.30;10.00;;;8.40;99.90;;;;;;6204374;23;20259;-81
2023/12/26 15:46:17;;;;;;;10.20;9.90;;;8.40;99.90;;;;;;6202859;23;20214;-81
2023/12/26 15:48:45;;;;;;;10.20;9.90;;;8.40;99.90;;;;;;6203282;23;20184;-81
2023/12/26 15:51:16;;;;;;;10.50;10.20;;;8.40;99.90;;;;;;6203196;23;20254;-81
2023/12/26 15:53:43;;;;;;;10.40;10.10;;;8.40;99.90;;;;;;6203400;23;20195;-81
2023/12/26 15:56:11;;;;;;;10.60;10.30;;;8.40;99.90;;;;;;6204674;23;20215;-81
2023/12/26 15:58:39;;;;;;;10.40;10.10;;;8.40;99.90;;;;;;6202617;23;20255;-81
2023/12/26 16:01:07;;;;;;;10.50;10.20;;;8.50;99.90;;;;;;6202741;23;20211;-82
2023/12/26 16:03:34;;;;;;;10.80;10.50;;;8.50;99.90;;;;;;6203176;23;20222;-81
2023/12/26 16:06:02;;;;;;;10.80;10.50;;;8.50;99.90;;;;;;6203868;23;20192;-81
2023/12/26 16:08:31;;;;;;;10.50;10.20;;;8.60;99.90;;;;;;6203001;23;20254;-81
2023/12/26 16:10:58;;;;;;;10.60;10.30;;;8.60;99.90;;;;;;6203894;23;20199;-81
2023/12/26 16:13:27;;;;;;;10.50;10.20;;;8.60;99.90;;;;;;6206056;23;20210;-81
2023/12/26 16:15:54;;;;;;;10.43;10.13;;;8.60;99.90;;;;;;6202084;23;20223;-81
2023/12/26 16:18:21;;;;;;;11.00;10.70;;;8.60;99.90;;;;;;6203083;23;20191;-82
2023/12/26 16:20:49;;;;;;;10.53;10.23;;;8.60;99.90;;;;;;6202406;23;20219;-81
2023/12/26 16:23:16;;;;;;;10.60;10.30;;;8.50;99.90;;;;;;6203234;23;20200;-81
2023/12/26 16:25:45;;;;;;;10.50;10.20;;;8.50;99.90;;;;;;6209082;23;20210;-82
2023/12/26 16:28:12;;;;;;;10.83;10.53;;;8.50;99.90;;;;;;6203593;23;20253;-80
2023/12/26 16:30:40;;;;;;;10.50;10.20;;;8.50;99.90;;;;;;6202953;23;20203;-80
2023/12/26 16:33:07;;;;;;;10.40;10.10;;;8.50;99.90;;;;;;6203146;23;20206;-81
2023/12/26 16:35:35;;;;;;;10.30;10.00;;;8.50;99.90;;;;;;6202208;23;20196;-80
2023/12/26 16:38:02;;;;;;;10.37;10.07;;;8.50;99.90;;;;;;6204465;23;20211;-80
2023/12/26 16:40:30;;;;;;;10.30;10.00;;;8.50;99.90;;;;;;6205381;23;20211;-80
2023/12/26 16:42:59;;;;;;;10.40;10.10;;;8.50;99.90;;;;;;6203229;23;20230;-81
2023/12/26 16:45:26;;;;;;;10.40;10.10;;;8.50;99.90;;;;;;6203361;23;20195;-81
2023/12/26 16:47:54;;;;;;;10.20;9.90;;;8.50;99.90;;;;;;6202894;23;20192;-81
2023/12/26 16:50:21;;;;;;;10.33;10.03;;;8.40;99.90;;;;;;6205543;23;20219;-81
2023/12/26 16:52:49;;;;;;;10.60;10.30;;;8.40;99.90;;;;;;6204912;23;20202;-82
2023/12/26 16:55:16;;;;;;;10.47;10.17;;;8.40;99.90;;;;;;6204698;23;20262;-82
2023/12/26 16:57:44;;;;;;;10.43;10.13;;;8.40;99.90;;;;;;6203497;23;20207;-82
2023/12/26 17:00:15;;;;;;;10.50;10.20;;;8.40;99.90;;;;;;6204976;23;20282;-82
2023/12/26 17:02:42;;;;;;;10.40;10.10;;;8.40;99.90;;;;;;6204410;23;20192;-82
2023/12/26 17:05:09;;;;;;;10.30;10.00;;;8.40;99.90;;;;;;6204205;23;20199;-81
2023/12/26 17:07:37;;;;;;;10.10;9.80;;;8.40;99.90;;;;;;6205218;23;20198;-81
2023/12/26 17:10:05;;;;;;;10.30;10.00;;;8.30;99.90;;;;;;6204127;23;20206;-81
2023/12/26 17:12:32;;;;;;;10.33;10.03;;;8.30;99.90;;;;;;6203721;23;20196;-82
2023/12/26 17:15:00;;;;;;;10.23;9.93;;;8.30;99.90;;;;;;6204171;23;20199;-81
2023/12/26 17:17:29;;;;;;;10.17;9.87;;;8.30;99.90;;;;;;6203443;23;20226;-81
2023/12/26 17:19:56;;;;;;;10.50;10.20;;;8.30;99.90;;;;;;6203283;23;20259;-82
2023/12/26 17:22:24;;;;;;;10.10;9.80;;;8.30;99.90;;;;;;6204552;23;20255;-82
2023/12/26 17:24:51;;;;;;;10.10;9.80;;;8.40;99.90;;;;;;6203321;23;20195;-81
2023/12/26 17:27:20;;;;;;;10.20;9.90;;;8.40;99.90;;;;;;6204086;23;20286;-82
2023/12/26 17:29:47;;;;;;;10.20;9.90;;;8.40;99.90;;;;;;6173915;23;20196;-82
2023/12/26 17:32:15;;;;;;;10.40;10.10;;;8.30;99.90;;;;;;6174295;23;20203;-81
2023/12/26 17:34:44;;;;;;;10.20;9.90;;;8.40;99.90;;;;;;6174125;23;20224;-81
2023/12/26 17:37:11;;;;;;;10.20;9.90;;;8.40;99.90;;;;;;6173521;23;20224;-82
2023/12/26 17:39:38;;;;;;;10.40;10.10;;;8.40;99.90;;;;;;6173222;23;20196;-81
2023/12/26 17:42:07;;;;;;;10.40;10.10;;;8.40;99.90;;;;;;6173053;23;20193;-82
2023/12/26 17:44:34;;;;;;;10.40;10.10;;;8.40;99.90;;;;;;6173164;23;20251;-81
2023/12/26 17:47:02;;;;;;;10.27;9.97;;;8.40;99.90;;;;;;6173490;23;20201;-82
2023/12/26 17:49:29;;;;;;;10.27;9.97;;;8.40;99.90;;;;;;6174910;23;20200;-81
2023/12/26 17:51:58;;;;;;;10.50;10.20;;;8.40;99.90;;;;;;6173453;23;20275;-82
2023/12/26 17:54:25;;;;;;;10.50;10.20;;;8.40;99.90;;;;;;6173305;23;20196;-82
2023/12/26 17:56:53;;;;;;;10.30;10.00;;;8.40;99.90;;;;;;6173267;23;20253;-82
2023/12/26 17:59:20;;;;;;;10.53;10.23;;;8.40;99.90;;;;;;6173272;23;20295;-81
2023/12/26 18:01:50;;;;;;;10.37;10.07;;;8.40;99.90;;;;;;6174484;23;20200;-82
2023/12/26 18:04:18;;;;;;;10.50;10.20;;;8.40;99.90;;;;;;6174142;23;20189;-81
2023/12/26 18:06:45;;;;;;;10.70;10.40;;;8.40;99.90;;;;;;6173714;23;20192;-81
2023/12/26 18:09:14;;;;;;;10.20;9.90;;;8.40;99.90;;;;;;6173406;23;20200;-81
2023/12/26 18:11:41;;;;;;;10.50;10.20;;;8.40;99.90;;;;;;6172907;23;20206;-82
2023/12/26 18:14:25;;;;;;;10.40;10.10;;;8.40;99.90;;;;;;6174125;23;20212;-82
2023/12/26 18:16:53;;;;;;;10.33;10.03;;;8.40;99.90;;;;;;6172156;23;20212;-82
2023/12/26 18:19:20;;;;;;;10.40;10.10;;;8.40;99.90;;;;;;6172863;23;20255;-81
2023/12/26 18:21:48;;;;;;;10.10;9.80;;;8.40;99.90;;;;;;6173079;23;20198;-82
2023/12/26 18:24:17;;;;;;;10.50;10.20;;;8.40;99.90;;;;;;6174112;23;20228;-82
2023/12/26 18:26:44;;;;;;;10.50;10.20;;;8.40;99.90;;;;;;6171579;23;20195;-81
2023/12/26 18:29:12;;;;;;;10.40;10.10;;;8.40;99.90;;;;;;6172051;23;20208;-82
2023/12/26 18:31:39;;;;;;;10.40;10.10;;;8.40;99.90;;;;;;6171337;23;20292;-82
2023/12/26 18:34:06;;;;;;;10.50;10.20;;;8.30;99.90;;;;;;6171165;23;20208;-82
2023/12/26 18:36:36;;;;;;;10.53;10.23;;;8.30;99.90;;;;;;6172323;23;20216;-81
2023/12/26 18:39:04;;;;;;;10.40;10.10;;;8.30;99.90;;;;;;6172345;23;20208;-82
2023/12/26 18:41:33;;;;;;;10.70;10.40;;;8.40;99.90;;;;;;6171853;23;20208;-82
2023/12/26 18:44:00;;;;;;;10.60;10.30;;;8.30;99.90;;;;;;6171240;23;20207;-82
2023/12/26 18:46:28;;;;;;;10.50;10.20;;;8.30;99.90;;;;;;6172082;23;20195;-81
2023/12/26 18:48:55;;;;;;;10.60;10.30;;;8.40;99.90;;;;;;6172493;23;20259;-82
2023/12/26 18:51:26;;;;;;;10.50;10.20;;;8.40;99.90;;;;;;6174047;23;20271;-82
2023/12/26 18:53:54;;;;;;;10.60;10.30;;;8.40;99.90;;;;;;6173032;23;20200;-80
2023/12/26 18:56:22;;;;;;;10.63;10.33;;;8.40;99.90;;;;;;6172435;23;20255;-81
2023/12/26 18:58:50;;;;;;;10.50;10.20;;;8.30;99.90;;;;;;6171221;23;20196;-81
2023/12/26 19:01:18;;;;;;;10.07;9.77;;;8.30;99.90;;;;;;6172193;23;20203;-81
2023/12/26 19:03:46;;;;;;;10.40;10.10;;;8.30;99.90;;;;;;6175681;23;20214;-80
2023/12/26 19:06:13;;;;;;;10.40;10.10;;;8.40;99.90;;;;;;6175073;23;20227;-81
2023/12/26 19:08:43;;;;;;;10.27;9.97;;;8.40;99.90;;;;;;6174473;23;20279;-81
2023/12/26 19:11:16;;;;;;;10.40;10.10;;;8.40;99.90;;;;;;6174093;23;20204;-81
2023/12/26 19:13:44;;;;;;;10.60;10.30;;;8.40;99.90;;;;;;6174231;23;20269;-80
2023/12/26 19:16:16;;;;;;;10.30;10.00;;;8.40;99.90;;;;;;6174803;23;20201;-80
2023/12/26 19:18:43;;;;;;;10.67;10.37;;;8.40;99.90;;;;;;6174615;23;20204;-81
2023/12/26 19:21:11;;;;;;;10.33;10.03;;;8.50;99.90;;;;;;6174042;23;20204;-80
2023/12/26 19:23:38;;;;;;;10.50;10.20;;;8.40;99.90;;;;;;6174533;23;20203;-80
2023/12/26 19:26:07;;;;;;;11.25;10.90;;;8.40;99.90;;;;;;6171052;23;20372;-80
2023/12/26 19:28:35;;;;;;;10.87;10.57;;;8.40;99.90;;;;;;6171201;23;20197;-81
2023/12/26 19:31:03;;;;;;;10.40;10.10;;;8.40;99.90;;;;;;6170030;23;20208;-82
2023/12/26 19:33:33;;;;;;;10.53;10.23;;;8.40;99.90;;;;;;6165817;23;20263;-80
2023/12/26 19:36:02;;;;;;;10.57;10.27;;;8.40;99.90;;;;;;6168858;23;20200;-80